sensor_id;sensor_type;location;lat;lon;timestamp;temperature;humidity
2010;DHT22;1008;47.404;8.502;2023-05-10T00:01:42;13.60;99.90
2010;DHT22;1008;47.404;8.502;2023-05-10T00:04:10;13.60;99.90
2010;DHT22;1008;47.404;8.502;2023-05-10T00:06:37;13.60;99.90
2010;DHT22;1008;47.404;8.502;2023-05-10T00:09:04;13.60;99.90
2010;DHT22;1008;47.404;8.502;2023-05-10T00:11:30;13.50;99.90
2010;DHT22;1008;47.404;8.502;2023-05-10T00:13:57;13.60;99.90
2010;DHT22;1008;47.404;8.502;2023-05-10T00:16:24;13.60;99.90
2010;DHT22;1008;47.404;8.502;2023-05-10T00:18:51;13.60;99.90
2010;DHT22;1008;47.404;8.502;2023-05-10T00:21:19;13.70;99.90
2010;DHT22;1008;47.404;8.502;2023-05-10T00:23:45;13.70;99.90
2010;DHT22;1008;47.404;8.502;2023-05-10T00:26:12;13.70;99.90
2010;DHT22;1008;47.404;8.502;2023-05-10T00:28:39;13.90;99.90
2010;DHT22;1008;47.404;8.502;2023-05-10T00:31:06;14.10;99.90
2010;DHT22;1008;47.404;8.502;2023-05-10T00:33:32;14.00;99.90
2010;DHT22;1008;47.404;8.502;2023-05-10T00:35:59;14.20;99.90
2010;DHT22;1008;47.404;8.502;2023-05-10T00:38:27;14.00;99.90
2010;DHT22;1008;47.404;8.502;2023-05-10T00:40:54;13.90;99.90
2010;DHT22;1008;47.404;8.502;2023-05-10T00:43:21;14.00;99.90
2010;DHT22;1008;47.404;8.502;2023-05-10T00:45:48;14.00;99.90
2010;DHT22;1008;47.404;8.502;2023-05-10T00:48:16;13.90;99.90
2010;DHT22;1008;47.404;8.502;2023-05-10T00:50:43;13.90;99.90
2010;DHT22;1008;47.404;8.502;2023-05-10T00:53:10;13.90;99.90
2010;DHT22;1008;47.404;8.502;2023-05-10T00:55:38;13.90;99.90
2010;DHT22;1008;47.404;8.502;2023-05-10T00:58:05;13.80;99.90
2010;DHT22;1008;47.404;8.502;2023-05-10T01:00:33;13.80;99.90
2010;DHT22;1008;47.404;8.502;2023-05-10T01:03:00;13.80;99.90
2010;DHT22;1008;47.404;8.502;2023-05-10T01:05:27;13.70;99.90
2010;DHT22;1008;47.404;8.502;2023-05-10T01:07:54;13.70;99.90
2010;DHT22;1008;47.404;8.502;2023-05-10T01:10:20;13.70;99.90
2010;DHT22;1008;47.404;8.502;2023-05-10T01:12:50;13.80;99.90
2010;DHT22;1008;47.404;8.502;2023-05-10T01:15:17;13.80;99.90
2010;DHT22;1008;47.404;8.502;2023-05-10T01:17:44;13.80;99.90
2010;DHT22;1008;47.404;8.502;2023-05-10T01:20:13;13.90;99.90
2010;DHT22;1008;47.404;8.502;2023-05-10T01:23:07;13.80;99.90
2010;DHT22;1008;47.404;8.502;2023-05-10T01:26:10;13.80;99.90
2010;DHT22;1008;47.404;8.502;2023-05-10T01:29:19;13.70;99.90
2010;DHT22;1008;47.404;8.502;2023-05-10T01:32:15;13.60;99.90
2010;DHT22;1008;47.404;8.502;2023-05-10T01:34:48;13.70;99.90
2010;DHT22;1008;47.404;8.502;2023-05-10T01:37:21;13.70;99.90
2010;DHT22;1008;47.404;8.502;2023-05-10T01:40:00;13.90;99.90
2010;DHT22;1008;47.404;8.502;2023-05-10T01:42:33;13.80;99.90
2010;DHT22;1008;47.404;8.502;2023-05-10T01:45:14;13.80;99.90
2010;DHT22;1008;47.404;8.502;2023-05-10T01:47:46;13.60;99.90
2010;DHT22;1008;47.404;8.502;2023-05-10T01:50:17;13.70;99.90
2010;DHT22;1008;47.404;8.502;2023-05-10T01:52:49;13.70;99.90
2010;DHT22;1008;47.404;8.502;2023-05-10T01:55:20;13.90;99.90
2010;DHT22;1008;47.404;8.502;2023-05-10T01:58:00;13.90;99.90
2010;DHT22;1008;47.404;8.502;2023-05-10T02:00:28;13.80;99.90
2010;DHT22;1008;47.404;8.502;2023-05-10T02:02:59;13.60;99.90
2010;DHT22;1008;47.404;8.502;2023-05-10T02:05:29;13.70;99.90
2010;DHT22;1008;47.404;8.502;2023-05-10T02:07:56;13.70;99.90
2010;DHT22;1008;47.404;8.502;2023-05-10T02:10:24;13.80;99.90
2010;DHT22;1008;47.404;8.502;2023-05-10T02:12:53;13.70;99.90
2010;DHT22;1008;47.404;8.502;2023-05-10T02:15:23;13.80;99.90
2010;DHT22;1008;47.404;8.502;2023-05-10T02:17:52;13.70;99.90
2010;DHT22;1008;47.404;8.502;2023-05-10T02:20:23;13.60;99.90
2010;DHT22;1008;47.404;8.502;2023-05-10T02:22:53;13.70;99.90
2010;DHT22;1008;47.404;8.502;2023-05-10T02:25:21;13.60;99.90
2010;DHT22;1008;47.404;8.502;2023-05-10T02:27:50;13.60;99.90
2010;DHT22;1008;47.404;8.502;2023-05-10T02:30:18;13.80;99.90
2010;DHT22;1008;47.404;8.502;2023-05-10T02:32:45;13.60;99.90
2010;DHT22;1008;47.404;8.502;2023-05-10T02:35:13;13.50;99.90
2010;DHT22;1008;47.404;8.502;2023-05-10T02:37:42;13.70;99.90
2010;DHT22;1008;47.404;8.502;2023-05-10T02:40:10;13.70;99.90
2010;DHT22;1008;47.404;8.502;2023-05-10T02:42:38;13.70;99.90
2010;DHT22;1008;47.404;8.502;2023-05-10T02:45:12;13.80;99.90
2010;DHT22;1008;47.404;8.502;2023-05-10T02:47:39;13.50;99.90
2010;DHT22;1008;47.404;8.502;2023-05-10T02:50:07;13.50;99.90
2010;DHT22;1008;47.404;8.502;2023-05-10T02:52:39;13.50;99.90
2010;DHT22;1008;47.404;8.502;2023-05-10T02:55:09;13.60;99.90
2010;DHT22;1008;47.404;8.502;2023-05-10T02:57:41;13.60;99.90
2010;DHT22;1008;47.404;8.502;2023-05-10T03:00:09;13.70;99.90
2010;DHT22;1008;47.404;8.502;2023-05-10T03:02:36;13.50;99.90
2010;DHT22;1008;47.404;8.502;2023-05-10T03:05:03;13.60;99.90
2010;DHT22;1008;47.404;8.502;2023-05-10T03:07:30;13.50;99.90
2010;DHT22;1008;47.404;8.502;2023-05-10T03:09:57;13.60;99.90
2010;DHT22;1008;47.404;8.502;2023-05-10T03:12:33;13.70;99.90
2010;DHT22;1008;47.404;8.502;2023-05-10T03:15:10;13.60;99.90
2010;DHT22;1008;47.404;8.502;2023-05-10T03:17:45;13.70;99.90
2010;DHT22;1008;47.404;8.502;2023-05-10T03:20:20;13.60;99.90
2010;DHT22;1008;47.404;8.502;2023-05-10T03:22:51;13.60;99.90
2010;DHT22;1008;47.404;8.502;2023-05-10T03:25:19;13.70;99.90
2010;DHT22;1008;47.404;8.502;2023-05-10T03:27:49;13.60;99.90
2010;DHT22;1008;47.404;8.502;2023-05-10T03:30:16;13.60;99.90
2010;DHT22;1008;47.404;8.502;2023-05-10T03:32:43;13.80;99.90
2010;DHT22;1008;47.404;8.502;2023-05-10T03:35:12;13.70;99.90
2010;DHT22;1008;47.404;8.502;2023-05-10T03:37:39;13.60;99.90
2010;DHT22;1008;47.404;8.502;2023-05-10T03:40:07;13.50;99.90
2010;DHT22;1008;47.404;8.502;2023-05-10T03:42:34;13.60;99.90
2010;DHT22;1008;47.404;8.502;2023-05-10T03:45:02;13.60;99.90
2010;DHT22;1008;47.404;8.502;2023-05-10T03:47:29;13.60;99.90
2010;DHT22;1008;47.404;8.502;2023-05-10T03:49:57;14.00;99.90
2010;DHT22;1008;47.404;8.502;2023-05-10T03:52:23;13.70;99.90
2010;DHT22;1008;47.404;8.502;2023-05-10T03:54:50;13.70;99.90
2010;DHT22;1008;47.404;8.502;2023-05-10T03:57:17;13.70;99.90
2010;DHT22;1008;47.404;8.502;2023-05-10T03:59:44;13.80;99.90
2010;DHT22;1008;47.404;8.502;2023-05-10T04:02:12;13.80;99.90
2010;DHT22;1008;47.404;8.502;2023-05-10T04:04:39;13.70;99.90
2010;DHT22;1008;47.404;8.502;2023-05-10T04:07:05;13.90;99.90
2010;DHT22;1008;47.404;8.502;2023-05-10T04:09:32;13.90;99.90
2010;DHT22;1008;47.404;8.502;2023-05-10T04:11:59;13.90;99.90
2010;DHT22;1008;47.404;8.502;2023-05-10T04:14:27;14.00;99.90
2010;DHT22;1008;47.404;8.502;2023-05-10T04:16:54;13.90;99.90
2010;DHT22;1008;47.404;8.502;2023-05-10T04:19:22;14.00;99.90
2010;DHT22;1008;47.404;8.502;2023-05-10T04:21:49;14.00;99.90
2010;DHT22;1008;47.404;8.502;2023-05-10T04:24:16;14.00;99.90
2010;DHT22;1008;47.404;8.502;2023-05-10T04:26:43;13.80;99.90
2010;DHT22;1008;47.404;8.502;2023-05-10T04:29:09;14.00;99.90
2010;DHT22;1008;47.404;8.502;2023-05-10T04:31:36;13.90;99.90
2010;DHT22;1008;47.404;8.502;2023-05-10T04:34:03;13.80;99.90
2010;DHT22;1008;47.404;8.502;2023-05-10T04:36:31;13.80;99.90
2010;DHT22;1008;47.404;8.502;2023-05-10T04:39:00;14.10;99.90
2010;DHT22;1008;47.404;8.502;2023-05-10T04:41:28;14.30;99.90
2010;DHT22;1008;47.404;8.502;2023-05-10T04:43:55;14.40;99.90
2010;DHT22;1008;47.404;8.502;2023-05-10T04:46:22;14.50;99.90
2010;DHT22;1008;47.404;8.502;2023-05-10T04:48:49;14.40;99.90
2010;DHT22;1008;47.404;8.502;2023-05-10T04:51:15;14.40;99.90
2010;DHT22;1008;47.404;8.502;2023-05-10T04:53:43;14.50;99.90
2010;DHT22;1008;47.404;8.502;2023-05-10T04:56:10;14.20;99.90
2010;DHT22;1008;47.404;8.502;2023-05-10T04:58:37;14.30;99.90
2010;DHT22;1008;47.404;8.502;2023-05-10T05:01:07;14.30;99.90
2010;DHT22;1008;47.404;8.502;2023-05-10T05:03:35;14.30;99.90
2010;DHT22;1008;47.404;8.502;2023-05-10T05:06:03;14.10;99.90
2010;DHT22;1008;47.404;8.502;2023-05-10T05:08:30;14.10;99.90
2010;DHT22;1008;47.404;8.502;2023-05-10T05:10:59;14.10;99.90
2010;DHT22;1008;47.404;8.502;2023-05-10T05:13:26;14.00;99.90
2010;DHT22;1008;47.404;8.502;2023-05-10T05:15:53;14.10;99.90
2010;DHT22;1008;47.404;8.502;2023-05-10T05:18:20;14.20;99.90
2010;DHT22;1008;47.404;8.502;2023-05-10T05:20:46;13.90;99.90
2010;DHT22;1008;47.404;8.502;2023-05-10T05:23:13;14.10;99.90
2010;DHT22;1008;47.404;8.502;2023-05-10T05:25:40;13.90;99.90
2010;DHT22;1008;47.404;8.502;2023-05-10T05:28:08;13.80;99.90
2010;DHT22;1008;47.404;8.502;2023-05-10T05:30:35;13.70;99.90
2010;DHT22;1008;47.404;8.502;2023-05-10T05:33:02;13.70;99.90
2010;DHT22;1008;47.404;8.502;2023-05-10T05:35:28;13.70;99.90
2010;DHT22;1008;47.404;8.502;2023-05-10T05:37:55;13.70;99.90
2010;DHT22;1008;47.404;8.502;2023-05-10T05:40:22;13.80;99.90
2010;DHT22;1008;47.404;8.502;2023-05-10T05:42:49;13.70;99.90
2010;DHT22;1008;47.404;8.502;2023-05-10T05:45:17;13.60;99.90
2010;DHT22;1008;47.404;8.502;2023-05-10T05:47:44;13.60;99.90
2010;DHT22;1008;47.404;8.502;2023-05-10T05:50:11;13.50;99.90
2010;DHT22;1008;47.404;8.502;2023-05-10T05:52:37;13.60;99.90
2010;DHT22;1008;47.404;8.502;2023-05-10T05:55:05;13.50;99.90
2010;DHT22;1008;47.404;8.502;2023-05-10T05:57:31;13.50;99.90
2010;DHT22;1008;47.404;8.502;2023-05-10T05:59:58;13.40;99.90
2010;DHT22;1008;47.404;8.502;2023-05-10T06:02:26;13.40;99.90
2010;DHT22;1008;47.404;8.502;2023-05-10T06:04:53;13.70;99.90
2010;DHT22;1008;47.404;8.502;2023-05-10T06:07:27;13.40;99.90
2010;DHT22;1008;47.404;8.502;2023-05-10T06:09:53;13.30;99.90
2010;DHT22;1008;47.404;8.502;2023-05-10T06:12:20;13.40;99.90
2010;DHT22;1008;47.404;8.502;2023-05-10T06:14:47;13.80;99.90
2010;DHT22;1008;47.404;8.502;2023-05-10T06:17:14;13.40;99.90
2010;DHT22;1008;47.404;8.502;2023-05-10T06:19:42;13.50;99.90
2010;DHT22;1008;47.404;8.502;2023-05-10T06:22:09;13.60;99.90
2010;DHT22;1008;47.404;8.502;2023-05-10T06:24:35;13.70;99.90
2010;DHT22;1008;47.404;8.502;2023-05-10T06:27:02;13.60;99.90
2010;DHT22;1008;47.404;8.502;2023-05-10T06:29:29;13.50;99.90
2010;DHT22;1008;47.404;8.502;2023-05-10T06:31:56;13.40;99.90
2010;DHT22;1008;47.404;8.502;2023-05-10T06:34:23;13.30;99.90
2010;DHT22;1008;47.404;8.502;2023-05-10T06:36:51;13.20;99.90
2010;DHT22;1008;47.404;8.502;2023-05-10T06:39:18;13.30;99.90
2010;DHT22;1008;47.404;8.502;2023-05-10T06:41:45;13.20;99.90
2010;DHT22;1008;47.404;8.502;2023-05-10T06:44:11;13.10;99.90
2010;DHT22;1008;47.404;8.502;2023-05-10T06:46:39;13.00;99.90
2010;DHT22;1008;47.404;8.502;2023-05-10T06:49:06;13.10;99.90
2010;DHT22;1008;47.404;8.502;2023-05-10T06:51:33;12.90;99.90
2010;DHT22;1008;47.404;8.502;2023-05-10T06:54:01;13.00;99.90
2010;DHT22;1008;47.404;8.502;2023-05-10T06:56:28;13.00;99.90
2010;DHT22;1008;47.404;8.502;2023-05-10T06:58:55;12.90;99.90
2010;DHT22;1008;47.404;8.502;2023-05-10T07:01:22;13.00;99.90
2010;DHT22;1008;47.404;8.502;2023-05-10T07:03:48;12.80;99.90
2010;DHT22;1008;47.404;8.502;2023-05-10T07:06:16;13.00;99.90
2010;DHT22;1008;47.404;8.502;2023-05-10T07:08:42;13.10;99.90
2010;DHT22;1008;47.404;8.502;2023-05-10T07:11:11;13.20;99.90
2010;DHT22;1008;47.404;8.502;2023-05-10T07:13:37;13.30;99.90
2010;DHT22;1008;47.404;8.502;2023-05-10T07:16:06;13.50;99.90
2010;DHT22;1008;47.404;8.502;2023-05-10T07:18:33;13.40;99.90
2010;DHT22;1008;47.404;8.502;2023-05-10T07:21:00;13.30;99.90
2010;DHT22;1008;47.404;8.502;2023-05-10T07:23:27;13.20;99.90
2010;DHT22;1008;47.404;8.502;2023-05-10T07:25:55;13.20;99.90
2010;DHT22;1008;47.404;8.502;2023-05-10T07:28:24;13.20;99.90
2010;DHT22;1008;47.404;8.502;2023-05-10T07:30:51;13.30;99.90
2010;DHT22;1008;47.404;8.502;2023-05-10T07:33:17;13.30;99.90
2010;DHT22;1008;47.404;8.502;2023-05-10T07:35:44;13.30;99.90
2010;DHT22;1008;47.404;8.502;2023-05-10T07:38:11;13.40;99.90
2010;DHT22;1008;47.404;8.502;2023-05-10T07:40:38;13.30;99.90
2010;DHT22;1008;47.404;8.502;2023-05-10T07:43:05;13.50;99.90
2010;DHT22;1008;47.404;8.502;2023-05-10T07:45:33;13.50;99.90
2010;DHT22;1008;47.404;8.502;2023-05-10T07:48:00;13.30;99.90
2010;DHT22;1008;47.404;8.502;2023-05-10T07:50:27;13.20;99.90
2010;DHT22;1008;47.404;8.502;2023-05-10T07:52:53;13.20;99.90
2010;DHT22;1008;47.404;8.502;2023-05-10T07:55:20;13.30;99.90
2010;DHT22;1008;47.404;8.502;2023-05-10T07:57:47;13.30;99.90
2010;DHT22;1008;47.404;8.502;2023-05-10T08:00:17;13.40;99.90
2010;DHT22;1008;47.404;8.502;2023-05-10T08:02:46;13.40;99.90
2010;DHT22;1008;47.404;8.502;2023-05-10T08:05:12;13.40;99.90
2010;DHT22;1008;47.404;8.502;2023-05-10T08:07:40;13.50;99.90
2010;DHT22;1008;47.404;8.502;2023-05-10T08:10:08;13.50;99.90
2010;DHT22;1008;47.404;8.502;2023-05-10T08:12:35;13.40;99.90
2010;DHT22;1008;47.404;8.502;2023-05-10T08:15:02;13.50;99.90
2010;DHT22;1008;47.404;8.502;2023-05-10T08:17:29;13.60;99.90
2010;DHT22;1008;47.404;8.502;2023-05-10T08:19:57;13.60;99.90
2010;DHT22;1008;47.404;8.502;2023-05-10T08:22:24;13.50;99.90
2010;DHT22;1008;47.404;8.502;2023-05-10T08:24:51;13.60;99.90
2010;DHT22;1008;47.404;8.502;2023-05-10T08:27:18;13.60;99.90
2010;DHT22;1008;47.404;8.502;2023-05-10T08:29:44;13.90;99.90
2010;DHT22;1008;47.404;8.502;2023-05-10T08:32:11;13.70;99.90
2010;DHT22;1008;47.404;8.502;2023-05-10T08:34:38;13.60;99.90
2010;DHT22;1008;47.404;8.502;2023-05-10T08:37:06;13.60;99.90
2010;DHT22;1008;47.404;8.502;2023-05-10T08:39:34;13.50;99.90
2010;DHT22;1008;47.404;8.502;2023-05-10T08:42:03;13.60;99.90
2010;DHT22;1008;47.404;8.502;2023-05-10T08:44:32;13.70;99.90
2010;DHT22;1008;47.404;8.502;2023-05-10T08:47:04;13.50;99.90
2010;DHT22;1008;47.404;8.502;2023-05-10T08:49:32;13.60;99.90
2010;DHT22;1008;47.404;8.502;2023-05-10T08:52:01;13.70;99.90
2010;DHT22;1008;47.404;8.502;2023-05-10T08:54:31;13.80;99.90
2010;DHT22;1008;47.404;8.502;2023-05-10T08:56:58;13.70;99.90
2010;DHT22;1008;47.404;8.502;2023-05-10T08:59:25;13.60;99.90
2010;DHT22;1008;47.404;8.502;2023-05-10T09:01:52;13.70;99.90
2010;DHT22;1008;47.404;8.502;2023-05-10T09:04:21;13.70;99.90
2010;DHT22;1008;47.404;8.502;2023-05-10T09:06:48;13.60;99.90
2010;DHT22;1008;47.404;8.502;2023-05-10T09:09:15;13.70;99.90
2010;DHT22;1008;47.404;8.502;2023-05-10T09:11:44;13.90;99.90
2010;DHT22;1008;47.404;8.502;2023-05-10T09:14:12;13.80;99.90
2010;DHT22;1008;47.404;8.502;2023-05-10T09:16:40;13.80;99.90
2010;DHT22;1008;47.404;8.502;2023-05-10T09:19:07;13.80;99.90
2010;DHT22;1008;47.404;8.502;2023-05-10T09:21:35;13.80;99.90
2010;DHT22;1008;47.404;8.502;2023-05-10T09:24:04;13.80;99.90
2010;DHT22;1008;47.404;8.502;2023-05-10T09:26:31;13.80;99.90
2010;DHT22;1008;47.404;8.502;2023-05-10T09:29:00;13.90;99.90
2010;DHT22;1008;47.404;8.502;2023-05-10T09:31:45;14.10;99.90
2010;DHT22;1008;47.404;8.502;2023-05-10T09:34:16;14.40;99.90
2010;DHT22;1008;47.404;8.502;2023-05-10T09:36:53;14.10;99.90
2010;DHT22;1008;47.404;8.502;2023-05-10T09:39:30;14.10;99.90
2010;DHT22;1008;47.404;8.502;2023-05-10T09:41:57;14.00;99.90
2010;DHT22;1008;47.404;8.502;2023-05-10T09:44:27;14.10;99.90
2010;DHT22;1008;47.404;8.502;2023-05-10T09:46:53;13.80;99.90
2010;DHT22;1008;47.404;8.502;2023-05-10T09:49:21;13.70;99.90
2010;DHT22;1008;47.404;8.502;2023-05-10T09:51:50;13.60;99.90
2010;DHT22;1008;47.404;8.502;2023-05-10T09:54:25;13.70;99.90
2010;DHT22;1008;47.404;8.502;2023-05-10T09:56:52;13.50;99.90
2010;DHT22;1008;47.404;8.502;2023-05-10T09:59:19;13.70;99.90
2010;DHT22;1008;47.404;8.502;2023-05-10T10:01:51;14.10;99.90
2010;DHT22;1008;47.404;8.502;2023-05-10T10:04:20;14.00;99.90
2010;DHT22;1008;47.404;8.502;2023-05-10T10:06:58;13.90;99.90
2010;DHT22;1008;47.404;8.502;2023-05-10T10:09:25;14.00;99.90
2010;DHT22;1008;47.404;8.502;2023-05-10T10:11:52;14.20;99.90
2010;DHT22;1008;47.404;8.502;2023-05-10T10:14:21;14.10;99.90
2010;DHT22;1008;47.404;8.502;2023-05-10T10:16:50;14.00;99.90
2010;DHT22;1008;47.404;8.502;2023-05-10T10:19:17;14.10;99.90
2010;DHT22;1008;47.404;8.502;2023-05-10T10:21:44;14.00;99.90
2010;DHT22;1008;47.404;8.502;2023-05-10T10:24:11;14.20;99.90
2010;DHT22;1008;47.404;8.502;2023-05-10T10:26:38;14.40;99.90
2010;DHT22;1008;47.404;8.502;2023-05-10T10:29:15;14.50;99.90
2010;DHT22;1008;47.404;8.502;2023-05-10T10:31:47;14.60;99.90
2010;DHT22;1008;47.404;8.502;2023-05-10T10:34:25;14.80;99.90
2010;DHT22;1008;47.404;8.502;2023-05-10T10:36:52;14.70;99.90
2010;DHT22;1008;47.404;8.502;2023-05-10T10:39:20;14.90;99.90
2010;DHT22;1008;47.404;8.502;2023-05-10T10:41:51;15.00;99.90
2010;DHT22;1008;47.404;8.502;2023-05-10T10:44:42;15.10;99.90
2010;DHT22;1008;47.404;8.502;2023-05-10T10:47:23;15.30;99.90
2010;DHT22;1008;47.404;8.502;2023-05-10T10:50:04;15.50;99.90
2010;DHT22;1008;47.404;8.502;2023-05-10T10:52:32;15.50;99.90
2010;DHT22;1008;47.404;8.502;2023-05-10T10:55:01;15.70;99.90
2010;DHT22;1008;47.404;8.502;2023-05-10T10:57:31;15.70;99.90
2010;DHT22;1008;47.404;8.502;2023-05-10T11:00:18;15.80;99.90
2010;DHT22;1008;47.404;8.502;2023-05-10T11:02:46;15.90;99.90
2010;DHT22;1008;47.404;8.502;2023-05-10T11:08:20;15.70;99.90
2010;DHT22;1008;47.404;8.502;2023-05-10T11:11:01;15.40;99.90
2010;DHT22;1008;47.404;8.502;2023-05-10T11:13:30;15.20;99.90
2010;DHT22;1008;47.404;8.502;2023-05-10T11:15:58;15.20;99.90
2010;DHT22;1008;47.404;8.502;2023-05-10T11:18:26;15.00;99.90
2010;DHT22;1008;47.404;8.502;2023-05-10T11:20:56;15.10;99.90
2010;DHT22;1008;47.404;8.502;2023-05-10T11:23:28;15.10;99.90
2010;DHT22;1008;47.404;8.502;2023-05-10T11:25:55;15.00;99.90
2010;DHT22;1008;47.404;8.502;2023-05-10T11:28:23;14.90;99.90
2010;DHT22;1008;47.404;8.502;2023-05-10T11:30:50;14.80;99.90
2010;DHT22;1008;47.404;8.502;2023-05-10T11:33:18;14.80;99.90
2010;DHT22;1008;47.404;8.502;2023-05-10T11:35:46;14.90;99.90
2010;DHT22;1008;47.404;8.502;2023-05-10T11:38:14;15.10;99.90
2010;DHT22;1008;47.404;8.502;2023-05-10T11:40:41;15.30;99.90
2010;DHT22;1008;47.404;8.502;2023-05-10T11:43:09;15.20;99.90
2010;DHT22;1008;47.404;8.502;2023-05-10T11:45:37;15.30;99.90
2010;DHT22;1008;47.404;8.502;2023-05-10T11:48:04;15.30;99.90
2010;DHT22;1008;47.404;8.502;2023-05-10T11:50:31;15.30;99.90
2010;DHT22;1008;47.404;8.502;2023-05-10T11:52:58;15.20;99.90
2010;DHT22;1008;47.404;8.502;2023-05-10T11:55:26;15.30;99.90
2010;DHT22;1008;47.404;8.502;2023-05-10T11:57:59;15.40;99.90
2010;DHT22;1008;47.404;8.502;2023-05-10T12:00:26;15.20;99.90
2010;DHT22;1008;47.404;8.502;2023-05-10T12:02:53;15.10;99.90
2010;DHT22;1008;47.404;8.502;2023-05-10T12:05:20;15.00;99.90
2010;DHT22;1008;47.404;8.502;2023-05-10T12:07:46;15.10;99.90
2010;DHT22;1008;47.404;8.502;2023-05-10T12:10:13;15.30;99.90
2010;DHT22;1008;47.404;8.502;2023-05-10T12:12:44;15.70;99.90
2010;DHT22;1008;47.404;8.502;2023-05-10T12:15:17;15.80;99.90
2010;DHT22;1008;47.404;8.502;2023-05-10T12:17:44;15.90;99.90
2010;DHT22;1008;47.404;8.502;2023-05-10T12:20:15;15.80;99.90
2010;DHT22;1008;47.404;8.502;2023-05-10T12:22:48;15.90;99.90
2010;DHT22;1008;47.404;8.502;2023-05-10T12:25:16;16.00;99.90
2010;DHT22;1008;47.404;8.502;2023-05-10T12:27:49;16.00;99.90
2010;DHT22;1008;47.404;8.502;2023-05-10T12:30:21;15.80;99.90
2010;DHT22;1008;47.404;8.502;2023-05-10T12:32:47;15.70;99.90
2010;DHT22;1008;47.404;8.502;2023-05-10T12:35:14;15.50;99.90
2010;DHT22;1008;47.404;8.502;2023-05-10T12:37:42;15.40;99.90
2010;DHT22;1008;47.404;8.502;2023-05-10T12:40:10;15.50;99.90
2010;DHT22;1008;47.404;8.502;2023-05-10T12:42:38;15.50;99.90
2010;DHT22;1008;47.404;8.502;2023-05-10T12:45:08;15.20;99.90
2010;DHT22;1008;47.404;8.502;2023-05-10T12:47:35;15.10;99.90
2010;DHT22;1008;47.404;8.502;2023-05-10T12:50:02;15.10;99.90
2010;DHT22;1008;47.404;8.502;2023-05-10T12:52:30;15.00;99.90
2010;DHT22;1008;47.404;8.502;2023-05-10T12:54:57;15.00;99.90
2010;DHT22;1008;47.404;8.502;2023-05-10T12:57:26;15.00;99.90
2010;DHT22;1008;47.404;8.502;2023-05-10T12:59:53;14.80;99.90
2010;DHT22;1008;47.404;8.502;2023-05-10T13:02:21;14.70;99.90
2010;DHT22;1008;47.404;8.502;2023-05-10T13:04:49;14.70;99.90
2010;DHT22;1008;47.404;8.502;2023-05-10T13:07:15;14.70;99.90
2010;DHT22;1008;47.404;8.502;2023-05-10T13:09:42;14.60;99.90
2010;DHT22;1008;47.404;8.502;2023-05-10T13:12:09;14.40;99.90
2010;DHT22;1008;47.404;8.502;2023-05-10T13:14:36;14.40;99.90
2010;DHT22;1008;47.404;8.502;2023-05-10T13:17:02;14.40;99.90
2010;DHT22;1008;47.404;8.502;2023-05-10T13:19:30;14.50;99.90
2010;DHT22;1008;47.404;8.502;2023-05-10T13:21:57;14.40;99.90
2010;DHT22;1008;47.404;8.502;2023-05-10T13:24:24;14.50;99.90
2010;DHT22;1008;47.404;8.502;2023-05-10T13:26:51;14.70;99.90
2010;DHT22;1008;47.404;8.502;2023-05-10T13:29:17;14.80;99.90
2010;DHT22;1008;47.404;8.502;2023-05-10T13:31:44;14.70;99.90
2010;DHT22;1008;47.404;8.502;2023-05-10T13:34:11;14.80;99.90
2010;DHT22;1008;47.404;8.502;2023-05-10T13:36:39;15.20;99.90
2010;DHT22;1008;47.404;8.502;2023-05-10T13:39:06;15.20;99.90
2010;DHT22;1008;47.404;8.502;2023-05-10T13:41:33;15.50;99.90
2010;DHT22;1008;47.404;8.502;2023-05-10T13:44:00;15.60;99.90
2010;DHT22;1008;47.404;8.502;2023-05-10T13:46:27;15.40;99.90
2010;DHT22;1008;47.404;8.502;2023-05-10T13:48:54;15.20;99.90
2010;DHT22;1008;47.404;8.502;2023-05-10T13:51:20;15.00;99.90
2010;DHT22;1008;47.404;8.502;2023-05-10T13:53:49;14.90;99.90
2010;DHT22;1008;47.404;8.502;2023-05-10T13:56:15;14.50;99.90
2010;DHT22;1008;47.404;8.502;2023-05-10T13:58:42;14.50;99.90
2010;DHT22;1008;47.404;8.502;2023-05-10T14:01:09;14.40;99.90
2010;DHT22;1008;47.404;8.502;2023-05-10T14:03:37;14.20;99.90
2010;DHT22;1008;47.404;8.502;2023-05-10T14:06:04;14.10;99.90
2010;DHT22;1008;47.404;8.502;2023-05-10T14:08:32;14.00;99.90
2010;DHT22;1008;47.404;8.502;2023-05-10T14:11:01;14.00;99.90
2010;DHT22;1008;47.404;8.502;2023-05-10T14:13:27;14.30;99.90
2010;DHT22;1008;47.404;8.502;2023-05-10T14:15:54;14.40;99.90
2010;DHT22;1008;47.404;8.502;2023-05-10T14:18:21;14.60;99.90
2010;DHT22;1008;47.404;8.502;2023-05-10T14:20:48;14.50;99.90
2010;DHT22;1008;47.404;8.502;2023-05-10T14:23:15;14.90;99.90
2010;DHT22;1008;47.404;8.502;2023-05-10T14:25:42;14.50;99.90
2010;DHT22;1008;47.404;8.502;2023-05-10T14:28:10;14.40;99.90
2010;DHT22;1008;47.404;8.502;2023-05-10T14:30:37;14.50;99.90
2010;DHT22;1008;47.404;8.502;2023-05-10T14:33:04;14.60;99.90
2010;DHT22;1008;47.404;8.502;2023-05-10T14:35:31;15.00;99.90
2010;DHT22;1008;47.404;8.502;2023-05-10T14:37:57;15.30;99.90
2010;DHT22;1008;47.404;8.502;2023-05-10T14:40:24;15.20;99.90
2010;DHT22;1008;47.404;8.502;2023-05-10T14:42:51;15.20;99.90
2010;DHT22;1008;47.404;8.502;2023-05-10T14:45:20;15.60;99.90
2010;DHT22;1008;47.404;8.502;2023-05-10T14:47:48;15.70;99.90
2010;DHT22;1008;47.404;8.502;2023-05-10T14:50:15;16.10;99.90
2010;DHT22;1008;47.404;8.502;2023-05-10T14:52:42;16.30;99.90
2010;DHT22;1008;47.404;8.502;2023-05-10T14:55:09;16.00;99.90
2010;DHT22;1008;47.404;8.502;2023-05-10T14:57:35;15.80;99.90
2010;DHT22;1008;47.404;8.502;2023-05-10T15:00:03;15.90;99.90
2010;DHT22;1008;47.404;8.502;2023-05-10T15:02:32;15.70;99.90
2010;DHT22;1008;47.404;8.502;2023-05-10T15:04:58;16.20;99.90
2010;DHT22;1008;47.404;8.502;2023-05-10T15:07:25;15.90;99.90
2010;DHT22;1008;47.404;8.502;2023-05-10T15:09:52;15.70;99.90
2010;DHT22;1008;47.404;8.502;2023-05-10T15:12:19;15.80;99.90
2010;DHT22;1008;47.404;8.502;2023-05-10T15:14:46;15.60;99.90
2010;DHT22;1008;47.404;8.502;2023-05-10T15:17:13;15.20;99.90
2010;DHT22;1008;47.404;8.502;2023-05-10T15:19:41;15.20;99.90
2010;DHT22;1008;47.404;8.502;2023-05-10T15:22:08;14.90;99.90
2010;DHT22;1008;47.404;8.502;2023-05-10T15:24:35;14.90;99.90
2010;DHT22;1008;47.404;8.502;2023-05-10T15:27:02;14.90;99.90
2010;DHT22;1008;47.404;8.502;2023-05-10T15:29:29;14.70;99.90
2010;DHT22;1008;47.404;8.502;2023-05-10T15:31:56;14.30;99.90
2010;DHT22;1008;47.404;8.502;2023-05-10T15:34:23;14.40;99.90
2010;DHT22;1008;47.404;8.502;2023-05-10T15:36:51;13.90;99.90
2010;DHT22;1008;47.404;8.502;2023-05-10T15:39:18;13.50;99.90
2010;DHT22;1008;47.404;8.502;2023-05-10T15:41:45;13.30;99.90
2010;DHT22;1008;47.404;8.502;2023-05-10T15:44:12;13.00;99.90
2010;DHT22;1008;47.404;8.502;2023-05-10T15:46:39;13.10;99.90
2010;DHT22;1008;47.404;8.502;2023-05-10T15:49:06;12.70;99.90
2010;DHT22;1008;47.404;8.502;2023-05-10T15:51:33;12.70;99.90
2010;DHT22;1008;47.404;8.502;2023-05-10T15:54:01;12.70;99.90
2010;DHT22;1008;47.404;8.502;2023-05-10T15:56:28;13.20;99.90
2010;DHT22;1008;47.404;8.502;2023-05-10T15:58:55;13.20;99.90
2010;DHT22;1008;47.404;8.502;2023-05-10T16:01:21;13.50;99.90
2010;DHT22;1008;47.404;8.502;2023-05-10T16:03:48;13.80;99.90
2010;DHT22;1008;47.404;8.502;2023-05-10T16:06:15;14.10;99.90
2010;DHT22;1008;47.404;8.502;2023-05-10T16:08:42;14.30;99.90
2010;DHT22;1008;47.404;8.502;2023-05-10T16:11:10;14.40;99.90
2010;DHT22;1008;47.404;8.502;2023-05-10T16:13:37;14.70;99.90